Terminal Aerodrome Forecast
Issued by NWS

Home | Current Version | Previous Version | Text Only | Print | Product List | Glossary On
Versions: 1 2 3 4 5 6 7 8 9 10 11 12 13 14
000
FTUS42 KTAE 301700
TAFVLD
TAF
KVLD 301740Z 3018/3118 13004KT P6SM VCSH SCT035
      TEMPO 3018/3022 4SM TSRA BKN035CB
     FM310000 15003KT P6SM BKN250
     FM311000 00000KT 4SM BR FEW004
     FM311500 15005KT P6SM SCT030 SCT250=

USA.gov is the U.S. government's official web portal to all federal, state and local government web resources and services.